Gala Trio — 3FCR8 — position and weather

sailwx.info

Track history (hours):
 
Tides and Currents Weather Stations Pressure Air Temp Water Temp Dewpoint Dewpoint Depression Visibility Wind Speed Wind Dir Waves Ship Positions

Gala Trio

Last reported at 2017-Sep-05 04:00 UTC. Time now 2017-Sep-25 08:23 UTC.
Position N 25°10' W 015°38'.
Warning: this ship's position is 20 days out of date.

Length 82 m; draft 4.5 m.

Type: Ship. MMSI: 351300000.

Date/timePositionNaut miles runAvg speedWind from/ knotsBaromVisibWave heightAir tempDewpointWater temp
2017-Sep-05 04:00N 25°10' W 015°38'9 8.2
2017-Sep-05 02:58N 25°17' W 015°32'19 7.9
2017-Sep-05 00:32N 25°33' W 015°20'0 7.7
2017-Sep-05 00:29N 25°33' W 015°19'4 7.6
2017-Sep-05 00:00N 25°36' W 015°17'4 7.5
2017-Sep-04 23:30N 25°39' W 015°15'52 8.2
2017-Sep-04 17:10N 26°22' W 014°43'1 8.2
2017-Sep-04 17:00N 26°23' W 014°42'4 8.3
2017-Sep-04 16:30N 26°27' W 014°39'4 8.1
2017-Sep-04 15:57N 26°30' W 014°36'3 7.9
2017-Sep-04 15:30N 26°33' W 014°34'4 7.8
2017-Sep-04 15:00N 26°36' W 014°31'4 7.6
2017-Sep-04 14:29N 26°39' W 014°29'4 7.6
2017-Sep-04 13:56N 26°43' W 014°26'4 7.4
2017-Sep-04 13:28N 26°46' W 014°24'3 7.2
2017-Sep-04 13:00N 26°49' W 014°22'4 7.2
2017-Sep-04 12:30N 26°52' W 014°20'3 7.0
2017-Sep-04 12:01N 26°55' W 014°18'4 7.1
2017-Sep-04 11:30N 26°58' W 014°15'57 7.9
2017-Sep-04 04:15N 27°43' W 013°37'3 8.2
2017-Sep-04 03:54N 27°46' W 013°35'7 8.4
2017-Sep-04 03:05N 27°52' W 013°31'3 8.6
2017-Sep-04 02:41N 27°54' W 013°29'2 8.6
2017-Sep-04 02:28N 27°56' W 013°28'9 8.4
2017-Sep-04 01:21N 28°04' W 013°23'3 8.1
2017-Sep-04 01:00N 28°06' W 013°21'4 8.0
2017-Sep-04 00:30N 28°10' W 013°18'4 7.9
2017-Sep-04 00:00N 28°13' W 013°15'8 7.9
2017-Sep-03 22:57N 28°19' W 013°09'4 7.9
2017-Sep-03 22:27N 28°22' W 013°06'40 7.3
2017-Sep-03 16:57N 28°54' W 012°39'4 7.2
2017-Sep-03 16:20N 28°58' W 012°36'5 7.1
2017-Sep-03 15:39N 29°02' W 012°33'1 7.2
2017-Sep-03 15:30N 29°03' W 012°33'  
2017-Aug-31 12:22N 35°57' W 005°34'3 5.9
2017-Aug-31 11:53N 35°58' W 005°31'10 5.8
2017-Aug-31 10:12N 35°56' W 005°19'1 6.7
2017-Aug-31 10:01N 35°54' W 005°19'1 1.3
2017-Aug-31 09:29N 35°54' W 005°19'0 0.0
2017-Aug-31 08:59N 35°54' W 005°19'0 0.0
2017-Aug-31 08:29N 35°54' W 005°19'0 0.0
2017-Aug-31 07:59N 35°54' W 005°19'0 0.0
2017-Aug-31 07:29N 35°54' W 005°19'1 1.4
2017-Aug-31 07:00N 35°54' W 005°18'1 1.8
2017-Aug-31 06:30N 35°55' W 005°18'3 5.2
2017-Aug-31 05:58N 35°55' W 005°15'343 6.6
2017-Aug-29 02:03N 36°50' E 001°46'1 8.3
2017-Aug-29 01:58N 36°50' E 001°46'4 8.3
2017-Aug-29 01:28N 36°51' E 001°51'7 8.2
2017-Aug-29 00:33N 36°53' E 002°00'0 8.1
2017-Aug-29 00:29N 36°53' E 002°01'4 8.0
2017-Aug-29 00:00N 36°54' E 002°06'4 7.9
2017-Aug-28 23:30N 36°55' E 002°10'4 7.9
2017-Aug-28 23:00N 36°57' E 002°15'8 7.8
2017-Aug-28 21:58N 36°58' E 002°25'3 7.6
2017-Aug-28 21:30N 36°59' E 002°29'23 7.4
2017-Aug-28 18:22N 37°04' E 002°57'25 7.0
2017-Aug-28 14:47N 37°06' E 003°29'4 7.2
2017-Aug-28 14:13N 37°07' E 003°34'3 7.2
2017-Aug-28 13:51N 37°07' E 003°37'3 7.4
2017-Aug-28 13:30N 37°07' E 003°40'4 7.4
2017-Aug-28 13:01N 37°07' E 003°45'4 7.4
2017-Aug-28 12:25N 37°08' E 003°51'3 7.4
2017-Aug-28 12:01N 37°08' E 003°54'4 7.5
2017-Aug-28 11:29N 37°08' E 003°59'4 7.4
2017-Aug-28 11:00N 37°08' E 004°04'4 7.5
2017-Aug-28 10:30N 37°08' E 004°08'4 7.8
2017-Aug-28 10:00N 37°09' E 004°13'5 7.6
2017-Aug-28 09:22N 37°09' E 004°19'3 6.8
2017-Aug-28 09:00N 37°09' E 004°22'3 6.9
2017-Aug-28 08:30N 37°09' E 004°27'4 7.3
2017-Aug-28 07:57N 37°10' E 004°32'6 7.2
2017-Aug-28 07:10N 37°10' E 004°39'1 7.2
2017-Aug-28 07:00N 37°10' E 004°40'4 7.2
2017-Aug-28 06:30N 37°10' E 004°45'4 7.5
2017-Aug-28 06:00N 37°11' E 004°49'5 7.4
2017-Aug-28 05:23N 37°11' E 004°55'3 7.0
2017-Aug-28 04:59N 37°11' E 004°59'3 7.0
2017-Aug-28 04:30N 37°11' E 005°03'3 7.0
2017-Aug-28 04:00N 37°11' E 005°07'3 6.9
2017-Aug-28 03:30N 37°12' E 005°12'4 6.9
2017-Aug-28 03:00N 37°12' E 005°16'4 7.2
2017-Aug-28 02:30N 37°12' E 005°20'4 7.3
2017-Aug-28 01:56N 37°13' E 005°26'15 7.3
2017-Aug-27 23:54N 37°13' E 005°44'3 7.2
2017-Aug-27 23:31N 37°14' E 005°48'4 7.1
2017-Aug-27 23:00N 37°14' E 005°52'4 7.2
2017-Aug-27 22:30N 37°14' E 005°57'4 7.3
2017-Aug-27 21:56N 37°15' E 006°02'6 7.6
2017-Aug-27 21:07N 37°15' E 006°10'1 7.4
2017-Aug-27 20:58N 37°15' E 006°11'4 7.4
2017-Aug-27 20:27N 37°15' E 006°16'22 7.5
2017-Aug-27 17:28N 37°16' E 006°44'156 7.6
2017-Aug-26 20:58N 37°37' E 009°58'6 7.3
2017-Aug-26 20:12N 37°38' E 010°05'2 7.6
2017-Aug-26 20:00N 37°38' E 010°07'7 7.7
2017-Aug-26 19:04N 37°37' E 010°16'2 8.0
2017-Aug-26 18:52N 37°37' E 010°18'12 8.1
2017-Aug-26 17:26N 37°34' E 010°33'3 8.0
2017-Aug-26 17:00N 37°33' E 010°37'7 7.9
2017-Aug-26 16:06N 37°32' E 010°46'3 7.9
2017-Aug-26 15:44N 37°32' E 010°49'2 7.9
2017-Aug-26 15:30N 37°31' E 010°51'4 8.0
2017-Aug-26 15:00N 37°29' E 010°56'8 7.8
2017-Aug-26 14:00N 37°28' E 011°06'4 7.9
2017-Aug-26 13:30N 37°27' E 011°11'4 7.9
2017-Aug-26 13:00N 37°25' E 011°15'4 8.0
2017-Aug-26 12:30N 37°23' E 011°19'4 7.9
2017-Aug-26 12:00N 37°22' E 011°24'4 8.2
2017-Aug-26 11:30N 37°21' E 011°29'21 8.3
2017-Aug-26 08:58N 37°16' E 011°55'4 8.0
2017-Aug-26 08:30N 37°15' E 011°59'4 7.5
2017-Aug-26 07:58N 37°14' E 012°04'6 7.3
2017-Aug-26 07:06N 37°12' E 012°12'1 7.2
2017-Aug-26 07:00N 37°12' E 012°13'4 7.2
2017-Aug-26 06:29N 37°11' E 012°17'4 7.2
2017-Aug-26 05:59N 37°10' E 012°22'4 7.3
2017-Aug-26 05:31N 37°09' E 012°26'4 7.2
2017-Aug-26 05:00N 37°08' E 012°30'3 7.1
2017-Aug-26 04:30N 37°07' E 012°35'  
Track history (hours):
 
Tides and Currents Weather Stations Pressure Air Temp Water Temp Dewpoint Dewpoint Depression Visibility Wind Speed Wind Dir Waves Ship Positions

Gala Trio

Last reported at 2017-Sep-05 04:00 UTC. Time now 2017-Sep-25 08:23 UTC.
Position N 25°10' W 015°38'.
Warning: this ship's position is 20 days out of date.

Length 82 m; draft 4.5 m.

Type: Ship. MMSI: 351300000.

Date/timePositionNaut miles runAvg speedWind from/ knotsBaromVisibWave heightAir tempDewpointWater temp
2017-Sep-05 04:00N 25°10' W 015°38'9 8.2
2017-Sep-05 02:58N 25°17' W 015°32'19 7.9
2017-Sep-05 00:32N 25°33' W 015°20'0 7.7
2017-Sep-05 00:29N 25°33' W 015°19'4 7.6
2017-Sep-05 00:00N 25°36' W 015°17'4 7.5
2017-Sep-04 23:30N 25°39' W 015°15'52 8.2
2017-Sep-04 17:10N 26°22' W 014°43'1 8.2
2017-Sep-04 17:00N 26°23' W 014°42'4 8.3
2017-Sep-04 16:30N 26°27' W 014°39'4 8.1
2017-Sep-04 15:57N 26°30' W 014°36'3 7.9
2017-Sep-04 15:30N 26°33' W 014°34'4 7.8
2017-Sep-04 15:00N 26°36' W 014°31'4 7.6
2017-Sep-04 14:29N 26°39' W 014°29'4 7.6
2017-Sep-04 13:56N 26°43' W 014°26'4 7.4
2017-Sep-04 13:28N 26°46' W 014°24'3 7.2
2017-Sep-04 13:00N 26°49' W 014°22'4 7.2
2017-Sep-04 12:30N 26°52' W 014°20'3 7.0
2017-Sep-04 12:01N 26°55' W 014°18'4 7.1
2017-Sep-04 11:30N 26°58' W 014°15'57 7.9
2017-Sep-04 04:15N 27°43' W 013°37'3 8.2
2017-Sep-04 03:54N 27°46' W 013°35'7 8.4
2017-Sep-04 03:05N 27°52' W 013°31'3 8.6
2017-Sep-04 02:41N 27°54' W 013°29'2 8.6
2017-Sep-04 02:28N 27°56' W 013°28'9 8.4
2017-Sep-04 01:21N 28°04' W 013°23'3 8.1
2017-Sep-04 01:00N 28°06' W 013°21'4 8.0
2017-Sep-04 00:30N 28°10' W 013°18'4 7.9
2017-Sep-04 00:00N 28°13' W 013°15'8 7.9
2017-Sep-03 22:57N 28°19' W 013°09'4 7.9
2017-Sep-03 22:27N 28°22' W 013°06'40 7.3
2017-Sep-03 16:57N 28°54' W 012°39'4 7.2
2017-Sep-03 16:20N 28°58' W 012°36'5 7.1
2017-Sep-03 15:39N 29°02' W 012°33'1 7.2
2017-Sep-03 15:30N 29°03' W 012°33'  
2017-Aug-31 12:22N 35°57' W 005°34'3 5.9
2017-Aug-31 11:53N 35°58' W 005°31'10 5.8
2017-Aug-31 10:12N 35°56' W 005°19'1 6.7
2017-Aug-31 10:01N 35°54' W 005°19'1 1.3
2017-Aug-31 09:29N 35°54' W 005°19'0 0.0
2017-Aug-31 08:59N 35°54' W 005°19'0 0.0
2017-Aug-31 08:29N 35°54' W 005°19'0 0.0
2017-Aug-31 07:59N 35°54' W 005°19'0 0.0
2017-Aug-31 07:29N 35°54' W 005°19'1 1.4
2017-Aug-31 07:00N 35°54' W 005°18'1 1.8
2017-Aug-31 06:30N 35°55' W 005°18'3 5.2
2017-Aug-31 05:58N 35°55' W 005°15'343 6.6
2017-Aug-29 02:03N 36°50' E 001°46'1 8.3
2017-Aug-29 01:58N 36°50' E 001°46'4 8.3
2017-Aug-29 01:28N 36°51' E 001°51'7 8.2
2017-Aug-29 00:33N 36°53' E 002°00'0 8.1
2017-Aug-29 00:29N 36°53' E 002°01'4 8.0
2017-Aug-29 00:00N 36°54' E 002°06'4 7.9
2017-Aug-28 23:30N 36°55' E 002°10'4 7.9
2017-Aug-28 23:00N 36°57' E 002°15'8 7.8
2017-Aug-28 21:58N 36°58' E 002°25'3 7.6
2017-Aug-28 21:30N 36°59' E 002°29'23 7.4
2017-Aug-28 18:22N 37°04' E 002°57'25 7.0
2017-Aug-28 14:47N 37°06' E 003°29'4 7.2
2017-Aug-28 14:13N 37°07' E 003°34'3 7.2
2017-Aug-28 13:51N 37°07' E 003°37'3 7.4
2017-Aug-28 13:30N 37°07' E 003°40'4 7.4
2017-Aug-28 13:01N 37°07' E 003°45'4 7.4
2017-Aug-28 12:25N 37°08' E 003°51'3 7.4
2017-Aug-28 12:01N 37°08' E 003°54'4 7.5
2017-Aug-28 11:29N 37°08' E 003°59'4 7.4
2017-Aug-28 11:00N 37°08' E 004°04'4 7.5
2017-Aug-28 10:30N 37°08' E 004°08'4 7.8
2017-Aug-28 10:00N 37°09' E 004°13'5 7.6
2017-Aug-28 09:22N 37°09' E 004°19'3 6.8
2017-Aug-28 09:00N 37°09' E 004°22'3 6.9
2017-Aug-28 08:30N 37°09' E 004°27'4 7.3
2017-Aug-28 07:57N 37°10' E 004°32'6 7.2
2017-Aug-28 07:10N 37°10' E 004°39'1 7.2
2017-Aug-28 07:00N 37°10' E 004°40'4 7.2
2017-Aug-28 06:30N 37°10' E 004°45'4 7.5
2017-Aug-28 06:00N 37°11' E 004°49'5 7.4
2017-Aug-28 05:23N 37°11' E 004°55'3 7.0
2017-Aug-28 04:59N 37°11' E 004°59'3 7.0
2017-Aug-28 04:30N 37°11' E 005°03'3 7.0
2017-Aug-28 04:00N 37°11' E 005°07'3 6.9
2017-Aug-28 03:30N 37°12' E 005°12'4 6.9
2017-Aug-28 03:00N 37°12' E 005°16'4 7.2
2017-Aug-28 02:30N 37°12' E 005°20'4 7.3
2017-Aug-28 01:56N 37°13' E 005°26'15 7.3
2017-Aug-27 23:54N 37°13' E 005°44'3 7.2
2017-Aug-27 23:31N 37°14' E 005°48'4 7.1
2017-Aug-27 23:00N 37°14' E 005°52'4 7.2
2017-Aug-27 22:30N 37°14' E 005°57'4 7.3
2017-Aug-27 21:56N 37°15' E 006°02'6 7.6
2017-Aug-27 21:07N 37°15' E 006°10'1 7.4
2017-Aug-27 20:58N 37°15' E 006°11'4 7.4
2017-Aug-27 20:27N 37°15' E 006°16'22 7.5
2017-Aug-27 17:28N 37°16' E 006°44'156 7.6
2017-Aug-26 20:58N 37°37' E 009°58'6 7.3
2017-Aug-26 20:12N 37°38' E 010°05'2 7.6
2017-Aug-26 20:00N 37°38' E 010°07'7 7.7
2017-Aug-26 19:04N 37°37' E 010°16'2 8.0
2017-Aug-26 18:52N 37°37' E 010°18'12 8.1
2017-Aug-26 17:26N 37°34' E 010°33'3 8.0
2017-Aug-26 17:00N 37°33' E 010°37'7 7.9
2017-Aug-26 16:06N 37°32' E 010°46'3 7.9
2017-Aug-26 15:44N 37°32' E 010°49'2 7.9
2017-Aug-26 15:30N 37°31' E 010°51'4 8.0
2017-Aug-26 15:00N 37°29' E 010°56'8 7.8
2017-Aug-26 14:00N 37°28' E 011°06'4 7.9
2017-Aug-26 13:30N 37°27' E 011°11'4 7.9
2017-Aug-26 13:00N 37°25' E 011°15'4 8.0
2017-Aug-26 12:30N 37°23' E 011°19'4 7.9
2017-Aug-26 12:00N 37°22' E 011°24'4 8.2
2017-Aug-26 11:30N 37°21' E 011°29'21 8.3
2017-Aug-26 08:58N 37°16' E 011°55'4 8.0
2017-Aug-26 08:30N 37°15' E 011°59'4 7.5
2017-Aug-26 07:58N 37°14' E 012°04'6 7.3
2017-Aug-26 07:06N 37°12' E 012°12'1 7.2
2017-Aug-26 07:00N 37°12' E 012°13'4 7.2
2017-Aug-26 06:29N 37°11' E 012°17'4 7.2
2017-Aug-26 05:59N 37°10' E 012°22'4 7.3
2017-Aug-26 05:31N 37°09' E 012°26'4 7.2
2017-Aug-26 05:00N 37°08' E 012°30'3 7.1
2017-Aug-26 04:30N 37°07' E 012°35'  

Dump ship's entire track history